Time;durP1;ratioP1;P1;durP2;ratioP2;P2;SDS_P1;SDS_P2;PMS_P1;PMS_P2;Temp;Humidity;BMP_temperature;BMP_pressure;BME280_temperature;BME280_humidity;BME280_pressure;Samples;Min_cycle;Max_cycle;Signal;HPM_P1;HPM_P2
2021/07/11 00:02:14;;;;;;;3.60;2.05;;;14.40;97.80;;;;;;5015550;28;20045;-87
2021/07/11 00:04:40;;;;;;;4.05;2.13;;;14.50;97.20;;;;;;4996622;28;20030;-87
2021/07/11 00:07:05;;;;;;;3.92;1.98;;;14.50;97.20;;;;;;5014794;28;20026;-88
2021/07/11 00:09:34;;;;;;;4.35;2.38;;;14.60;97.10;;;;;;5015929;28;20025;-88
2021/07/11 00:11:59;;;;;;;3.63;1.90;;;14.50;97.80;;;;;;4998681;28;20022;-89
2021/07/11 00:14:25;;;;;;;3.97;2.28;;;14.50;97.80;;;;;;5016237;28;20030;-88
2021/07/11 00:16:51;;;;;;;4.00;1.75;;;14.50;97.20;;;;;;5016685;28;20018;-88
2021/07/11 00:19:16;;;;;;;4.28;2.15;;;14.50;97.80;;;;;;5015383;28;20026;-88
2021/07/11 00:21:42;;;;;;;3.35;1.80;;;14.50;97.30;;;;;;5015324;28;20096;-87
2021/07/11 00:24:08;;;;;;;3.95;2.17;;;14.60;98.00;;;;;;5016359;28;20022;-88
2021/07/11 00:26:34;;;;;;;4.15;2.17;;;14.60;97.50;;;;;;5015624;28;20028;-88
2021/07/11 00:28:59;;;;;;;4.13;1.98;;;14.60;97.60;;;;;;5021337;28;20022;-87
2021/07/11 00:31:26;;;;;;;7.53;2.60;;;14.60;98.00;;;;;;5014956;28;20060;-87
2021/07/11 00:33:51;;;;;;;3.92;1.98;;;14.60;97.60;;;;;;5015030;28;20025;-87
2021/07/11 00:36:17;;;;;;;3.97;1.95;;;14.70;97.30;;;;;;5034169;28;20033;-86
2021/07/11 00:38:43;;;;;;;8.07;2.72;;;14.80;97.10;;;;;;5026499;28;20434;-87
2021/07/11 00:41:08;;;;;;;4.65;2.20;;;14.90;96.70;;;;;;5017203;28;20026;-87
2021/07/11 00:43:34;;;;;;;3.83;2.05;;;15.00;96.80;;;;;;5014789;28;20061;-88
2021/07/11 00:46:00;;;;;;;3.40;1.80;;;15.00;96.70;;;;;;5021903;28;20030;-88
2021/07/11 00:48:26;;;;;;;4.15;1.90;;;15.00;96.90;;;;;;5019648;28;20526;-87
2021/07/11 00:50:52;;;;;;;3.88;2.15;;;15.00;97.20;;;;;;5015498;28;20164;-88
2021/07/11 00:53:17;;;;;;;3.38;1.85;;;14.90;97.50;;;;;;5014592;28;20100;-87
2021/07/11 00:55:43;;;;;;;4.28;1.92;;;14.90;97.40;;;;;;5014851;28;20127;-87
2021/07/11 00:58:09;;;;;;;3.83;2.15;;;14.90;97.10;;;;;;5026111;28;20105;-87
2021/07/11 01:00:38;;;;;;;3.35;1.83;;;14.90;96.90;;;;;;5013762;28;20028;-86
2021/07/11 01:03:30;;;;;;;4.85;2.00;;;15.00;96.90;;;;;;5019395;28;20026;-87
2021/07/11 01:05:56;;;;;;;3.67;2.05;;;15.00;96.90;;;;;;4997478;28;20026;-88
2021/07/11 01:08:43;;;;;;;5.28;2.03;;;15.00;96.60;;;;;;4997517;28;20037;-88
2021/07/11 01:11:10;;;;;;;3.63;1.55;;;15.00;96.70;;;;;;4987681;28;20029;-88
2021/07/11 01:13:38;;;;;;;4.80;1.92;;;15.00;96.70;;;;;;5007024;28;20496;-88
2021/07/11 01:16:09;;;;;;;3.92;1.70;;;14.90;96.80;;;;;;5002566;28;20370;-88
2021/07/11 01:18:41;;;;;;;3.95;1.75;;;14.90;96.90;;;;;;4997898;28;20026;-88
2021/07/11 01:21:10;;;;;;;3.40;1.67;;;14.90;96.60;;;;;;5016509;28;20092;-88
2021/07/11 01:24:05;;;;;;;3.75;1.83;;;15.00;96.70;;;;;;5018102;28;20031;-88
2021/07/11 01:26:33;;;;;;;4.82;1.70;;;14.90;96.70;;;;;;5013525;28;20025;-88
2021/07/11 01:29:00;;;;;;;4.18;1.90;;;14.80;97.50;;;;;;5002510;28;20121;-88
2021/07/11 01:31:27;;;;;;;3.53;1.77;;;14.80;97.40;;;;;;5017940;28;20026;-88
2021/07/11 01:33:54;;;;;;;3.65;1.98;;;14.80;97.70;;;;;;5018329;28;20018;-88
2021/07/11 01:36:20;;;;;;;4.15;2.05;;;14.70;97.70;;;;;;5024318;28;20022;-88
2021/07/11 01:38:51;;;;;;;4.03;1.90;;;14.60;97.40;;;;;;5006106;28;20374;-88
2021/07/11 01:41:18;;;;;;;3.85;1.80;;;14.60;97.50;;;;;;5003796;28;20028;-88
2021/07/11 01:43:46;;;;;;;3.67;1.90;;;14.60;97.50;;;;;;5018061;28;20453;-88
2021/07/11 01:46:12;;;;;;;3.72;1.77;;;14.60;97.80;;;;;;5001766;28;20033;-87
2021/07/11 01:48:38;;;;;;;3.88;2.10;;;14.60;97.70;;;;;;5000803;28;20096;-88
2021/07/11 01:51:05;;;;;;;4.22;1.80;;;14.60;97.90;;;;;;5018498;28;20109;-88
2021/07/11 01:53:35;;;;;;;4.88;2.00;;;14.60;98.00;;;;;;5016490;28;20140;-89
2021/07/11 01:56:04;;;;;;;5.03;1.90;;;14.50;98.00;;;;;;5022676;28;20029;-88
2021/07/11 01:58:30;;;;;;;5.60;1.83;;;14.60;98.00;;;;;;5017882;28;20028;-88
2021/07/11 02:00:58;;;;;;;3.35;1.63;;;14.60;97.80;;;;;;5021215;28;20022;-88
2021/07/11 02:03:25;;;;;;;4.22;1.75;;;14.60;97.90;;;;;;5018175;28;20036;-88
2021/07/11 02:05:53;;;;;;;5.35;2.10;;;14.60;97.70;;;;;;5001017;28;20033;-88
2021/07/11 02:08:19;;;;;;;3.38;1.80;;;14.60;98.00;;;;;;5028476;28;20036;-87
2021/07/11 02:10:47;;;;;;;5.43;1.90;;;14.60;97.80;;;;;;5030797;28;20072;-88
2021/07/11 02:13:34;;;;;;;3.97;2.00;;;14.60;98.00;;;;;;5018980;28;20397;-89
2021/07/11 02:16:12;;;;;;;3.67;1.95;;;14.60;98.00;;;;;;5025406;28;20076;-88
2021/07/11 02:18:40;;;;;;;3.53;1.88;;;14.70;98.00;;;;;;5021794;28;20029;-88
2021/07/11 02:21:07;;;;;;;3.90;1.83;;;14.60;98.00;;;;;;5017339;28;20038;-88
2021/07/11 02:23:36;;;;;;;4.70;1.80;;;14.70;98.00;;;;;;5000284;28;20028;-88
2021/07/11 02:26:05;;;;;;;5.97;2.03;;;14.70;98.00;;;;;;5017186;28;20038;-88
2021/07/11 02:28:34;;;;;;;3.63;2.05;;;14.70;98.00;;;;;;5021772;28;20331;-88
2021/07/11 02:31:02;;;;;;;3.35;1.65;;;14.80;97.80;;;;;;5010728;28;20022;-88
2021/07/11 02:33:36;;;;;;;3.45;1.85;;;14.80;98.00;;;;;;5023085;28;20331;-88
2021/07/11 02:36:04;;;;;;;4.22;2.10;;;14.70;98.00;;;;;;5023848;28;20064;-88
2021/07/11 02:38:45;;;;;;;4.57;2.40;;;14.60;97.90;;;;;;5017087;28;20049;-88
2021/07/11 02:41:13;;;;;;;4.20;2.20;;;14.50;98.00;;;;;;5018155;28;20349;-88
2021/07/11 02:43:42;;;;;;;5.47;2.55;;;14.40;98.00;;;;;;5033205;28;20061;-87
2021/07/11 02:46:14;;;;;;;4.85;2.55;;;14.20;98.00;;;;;;4998942;28;20429;-87
2021/07/11 02:48:41;;;;;;;5.28;2.60;;;14.20;98.00;;;;;;5001637;28;20034;-86
2021/07/11 02:51:09;;;;;;;5.53;2.38;;;14.00;98.00;;;;;;5000387;28;20037;-86
2021/07/11 02:53:35;;;;;;;5.07;2.58;;;13.90;98.00;;;;;;4999284;28;20065;-85
2021/07/11 02:56:02;;;;;;;4.32;2.20;;;13.80;98.00;;;;;;5024626;28;20037;-86
2021/07/11 02:58:30;;;;;;;7.15;3.17;;;13.90;98.00;;;;;;5016923;28;20018;-85
2021/07/11 03:00:56;;;;;;;3.90;2.30;;;13.90;97.90;;;;;;5017211;28;20024;-86
2021/07/11 03:03:23;;;;;;;4.07;2.17;;;13.80;98.00;;;;;;5012227;28;20025;-88
2021/07/11 03:05:49;;;;;;;5.70;2.65;;;13.80;98.00;;;;;;5016544;28;20026;-88
2021/07/11 03:08:15;;;;;;;4.85;2.47;;;13.80;98.00;;;;;;5017485;28;20037;-87
2021/07/11 03:10:41;;;;;;;5.47;2.92;;;13.80;98.00;;;;;;5016574;28;20120;-87
2021/07/11 03:13:08;;;;;;;3.75;2.30;;;13.80;97.60;;;;;;4999979;28;20033;-87
2021/07/11 03:15:36;;;;;;;4.63;2.60;;;13.80;97.70;;;;;;5022659;28;20033;-87
2021/07/11 03:18:02;;;;;;;3.85;2.28;;;13.80;97.30;;;;;;5015752;28;20045;-87
2021/07/11 03:20:28;;;;;;;8.68;2.63;;;13.80;97.80;;;;;;5019800;28;20030;-86
2021/07/11 03:22:56;;;;;;;6.20;2.80;;;13.80;98.00;;;;;;5023871;28;20042;-87
2021/07/11 03:25:23;;;;;;;5.90;3.03;;;13.80;98.00;;;;;;5017431;28;20318;-86
2021/07/11 03:27:49;;;;;;;5.75;3.15;;;13.80;98.00;;;;;;5017779;28;20026;-87
2021/07/11 03:30:19;;;;;;;4.80;2.70;;;13.90;98.00;;;;;;5021241;28;20104;-86
2021/07/11 03:32:58;;;;;;;4.80;2.88;;;13.80;98.00;;;;;;4999123;28;20121;-87
2021/07/11 03:35:33;;;;;;;5.20;2.70;;;13.80;98.00;;;;;;4991769;28;20021;-87
2021/07/11 03:38:01;;;;;;;4.70;2.50;;;13.80;98.00;;;;;;5003145;28;20125;-87
2021/07/11 03:40:30;;;;;;;4.55;2.78;;;13.80;98.00;;;;;;5004671;28;20018;-86
2021/07/11 03:43:01;;;;;;;7.72;2.70;;;13.70;98.00;;;;;;5006582;28;20018;-87
2021/07/11 03:45:28;;;;;;;5.05;2.63;;;13.70;98.00;;;;;;4999405;28;20036;-86
2021/07/11 03:48:16;;;;;;;4.78;2.53;;;13.70;97.90;;;;;;5019308;28;20014;-86
2021/07/11 03:50:46;;;;;;;5.20;2.70;;;13.70;98.00;;;;;;5015153;28;20319;-87
2021/07/11 03:53:12;;;;;;;4.35;2.53;;;13.70;97.80;;;;;;4998727;28;20033;-87
2021/07/11 03:55:40;;;;;;;3.95;2.30;;;13.80;97.90;;;;;;5015676;28;20037;-86
2021/07/11 03:58:08;;;;;;;5.10;2.72;;;13.80;98.00;;;;;;5008418;28;20415;-87
2021/07/11 04:00:34;;;;;;;6.85;3.08;;;13.80;97.90;;;;;;5016002;28;20481;-87
2021/07/11 04:03:03;;;;;;;5.78;2.55;;;13.80;98.00;;;;;;5024009;28;20049;-87
2021/07/11 04:05:33;;;;;;;6.28;2.95;;;13.70;98.00;;;;;;5018646;28;20030;-86
2021/07/11 04:08:00;;;;;;;5.13;2.85;;;13.70;98.00;;;;;;5022109;28;20108;-87
2021/07/11 04:10:29;;;;;;;7.15;3.10;;;13.70;98.00;;;;;;5016372;28;20040;-87
2021/07/11 04:12:58;;;;;;;7.75;2.85;;;13.70;98.00;;;;;;4997449;28;20508;-87
2021/07/11 04:15:24;;;;;;;4.93;2.83;;;13.80;97.80;;;;;;4996700;28;20045;-88
2021/07/11 04:17:54;;;;;;;6.07;2.38;;;13.70;97.90;;;;;;5016729;28;20331;-87
2021/07/11 04:20:23;;;;;;;4.57;2.45;;;13.70;98.00;;;;;;5024704;28;20021;-87
2021/07/11 04:22:54;;;;;;;4.55;2.58;;;13.70;98.00;;;;;;4987107;28;20111;-88
2021/07/11 04:25:21;;;;;;;4.82;2.75;;;13.70;98.00;;;;;;4996933;28;20034;-88
2021/07/11 04:27:49;;;;;;;4.53;2.45;;;13.80;98.00;;;;;;5012497;28;20033;-87
2021/07/11 04:30:16;;;;;;;4.72;2.60;;;13.80;98.00;;;;;;5027342;28;20091;-87
2021/07/11 04:32:41;;;;;;;7.40;2.92;;;13.80;98.00;;;;;;4999331;28;20120;-87
2021/07/11 04:35:08;;;;;;;6.22;2.53;;;13.80;98.00;;;;;;4998285;28;20535;-87
2021/07/11 04:37:34;;;;;;;5.70;2.50;;;13.80;98.00;;;;;;5023702;28;20033;-88
2021/07/11 04:40:00;;;;;;;5.28;2.70;;;13.80;98.00;;;;;;5019043;28;20311;-87
2021/07/11 04:42:25;;;;;;;4.95;2.88;;;13.90;98.00;;;;;;5018965;28;20486;-87
2021/07/11 04:44:52;;;;;;;5.75;2.80;;;13.90;98.00;;;;;;5021849;28;20473;-88
2021/07/11 04:47:18;;;;;;;4.57;2.40;;;13.90;98.00;;;;;;5014810;28;20419;-88
2021/07/11 04:49:44;;;;;;;6.00;2.80;;;13.90;98.00;;;;;;5004483;28;20057;-88
2021/07/11 04:52:09;;;;;;;5.60;2.65;;;13.90;98.00;;;;;;5020371;28;20052;-87
2021/07/11 04:54:36;;;;;;;6.18;2.60;;;13.90;98.00;;;;;;4997492;28;20042;-87
2021/07/11 04:57:02;;;;;;;5.78;2.50;;;14.00;98.00;;;;;;5005309;28;20071;-88
2021/07/11 04:59:29;;;;;;;5.90;2.88;;;14.00;98.00;;;;;;5007773;28;20017;-88
2021/07/11 05:01:55;;;;;;;5.05;2.72;;;14.10;98.00;;;;;;5002261;28;20445;-88
2021/07/11 05:04:21;;;;;;;5.68;2.38;;;14.10;98.00;;;;;;5020437;28;20026;-88
2021/07/11 05:06:46;;;;;;;4.53;2.53;;;14.20;98.00;;;;;;5019604;28;20093;-89
2021/07/11 05:09:12;;;;;;;5.05;2.70;;;14.20;98.00;;;;;;5020433;28;20052;-89
2021/07/11 05:11:38;;;;;;;4.60;2.83;;;14.20;98.00;;;;;;5025302;28;20026;-88
2021/07/11 05:14:04;;;;;;;6.57;2.55;;;14.20;98.00;;;;;;5009924;28;20347;-89
2021/07/11 05:16:33;;;;;;;4.22;2.47;;;14.30;98.00;;;;;;5018673;28;20030;-89
2021/07/11 05:18:59;;;;;;;5.65;2.50;;;14.30;98.00;;;;;;5025459;28;20033;-89
2021/07/11 05:21:25;;;;;;;5.20;2.97;;;14.30;98.00;;;;;;5025628;28;20046;-88
2021/07/11 05:23:51;;;;;;;6.88;3.40;;;14.30;98.00;;;;;;5012589;28;20032;-89
2021/07/11 05:26:19;;;;;;;4.78;2.60;;;14.40;98.00;;;;;;5026480;28;20358;-90
2021/07/11 05:28:45;;;;;;;6.15;2.60;;;14.50;98.00;;;;;;5025147;28;20515;-89
2021/07/11 05:31:14;;;;;;;5.15;2.53;;;14.60;98.00;;;;;;5019561;28;20136;-89
2021/07/11 05:33:39;;;;;;;4.57;2.35;;;14.60;98.00;;;;;;5022232;28;20034;-89
2021/07/11 05:36:07;;;;;;;4.72;2.65;;;14.70;98.00;;;;;;5020569;28;20088;-88
2021/07/11 05:38:33;;;;;;;5.38;2.42;;;14.80;98.00;;;;;;5003332;28;20058;-88
2021/07/11 05:40:59;;;;;;;4.32;2.42;;;14.90;98.00;;;;;;5008707;28;20060;-89
2021/07/11 05:43:25;;;;;;;7.95;2.30;;;15.00;98.00;;;;;;5023468;28;20058;-89
2021/07/11 05:45:50;;;;;;;5.75;2.40;;;15.20;97.90;;;;;;5010352;28;20095;-87
2021/07/11 05:48:16;;;;;;;6.13;2.45;;;15.30;97.80;;;;;;5025078;28;20038;-86
2021/07/11 05:50:42;;;;;;;4.82;2.47;;;15.30;97.40;;;;;;5020937;28;20319;-86
2021/07/11 05:53:10;;;;;;;4.97;2.42;;;15.50;97.50;;;;;;5023560;28;20091;-87
2021/07/11 05:55:37;;;;;;;6.75;2.10;;;15.70;97.30;;;;;;5024008;28;20164;-87
2021/07/11 05:58:08;;;;;;;4.60;2.38;;;16.00;97.10;;;;;;5021325;28;20022;-89
2021/07/11 06:00:35;;;;;;;4.93;2.30;;;16.10;96.80;;;;;;5001998;28;20079;-89
2021/07/11 06:03:01;;;;;;;5.22;2.33;;;16.20;96.50;;;;;;5023238;28;20100;-89
2021/07/11 06:05:27;;;;;;;4.47;2.25;;;16.40;96.80;;;;;;5014757;28;20128;-88
2021/07/11 06:07:52;;;;;;;4.47;2.28;;;16.50;96.30;;;;;;5020989;28;20057;-89
2021/07/11 06:10:18;;;;;;;4.50;2.25;;;16.50;96.10;;;;;;5001773;28;20033;-87
2021/07/11 06:12:44;;;;;;;3.90;2.00;;;16.70;96.70;;;;;;5017813;28;20025;-88
2021/07/11 06:15:11;;;;;;;4.30;2.10;;;16.90;95.70;;;;;;5021925;28;20052;-87
2021/07/11 06:17:37;;;;;;;4.93;2.30;;;17.00;95.90;;;;;;5000566;28;20022;-88
2021/07/11 06:20:06;;;;;;;7.43;2.60;;;17.10;95.30;;;;;;5019888;28;20026;-88
2021/07/11 06:22:31;;;;;;;5.35;2.40;;;16.80;94.70;;;;;;5006835;28;20041;-88
2021/07/11 06:24:57;;;;;;;11.30;2.55;;;16.40;95.20;;;;;;5012675;28;21016;-88
2021/07/11 06:27:23;;;;;;;5.30;2.40;;;16.20;95.60;;;;;;4999363;28;20326;-87
2021/07/11 06:29:49;;;;;;;3.83;2.25;;;16.20;96.00;;;;;;5016199;28;20034;-88
2021/07/11 06:32:15;;;;;;;5.00;2.58;;;16.20;96.20;;;;;;5017521;28;20026;-87
2021/07/11 06:34:41;;;;;;;5.85;2.35;;;16.20;96.00;;;;;;5004207;28;20045;-87
2021/07/11 06:37:06;;;;;;;4.53;2.30;;;16.20;96.00;;;;;;5022155;28;20030;-88
2021/07/11 06:39:32;;;;;;;5.70;2.78;;;16.30;96.10;;;;;;5024702;28;20025;-88
2021/07/11 06:41:58;;;;;;;6.43;2.90;;;16.40;96.10;;;;;;5027398;28;20014;-89
2021/07/11 06:44:24;;;;;;;5.25;2.42;;;16.50;95.90;;;;;;5022937;28;20029;-88
2021/07/11 06:46:50;;;;;;;4.38;2.45;;;16.40;95.20;;;;;;5015207;28;20045;-87
2021/07/11 06:49:15;;;;;;;5.82;2.55;;;16.40;95.20;;;;;;4996859;28;20125;-88
2021/07/11 06:51:41;;;;;;;5.00;2.60;;;16.40;95.60;;;;;;5009979;28;20168;-87
2021/07/11 06:54:07;;;;;;;8.75;2.50;;;16.40;95.80;;;;;;5010119;28;20071;-88
2021/07/11 06:56:33;;;;;;;4.25;2.30;;;16.60;94.70;;;;;;5023047;28;20037;-89
2021/07/11 06:58:58;;;;;;;5.68;2.60;;;16.70;95.10;;;;;;5019723;28;20025;-89
2021/07/11 07:01:24;;;;;;;5.30;2.75;;;16.90;95.30;;;;;;5021269;28;20029;-88
2021/07/11 07:03:50;;;;;;;4.97;2.30;;;16.90;94.60;;;;;;5032369;28;20125;-89
2021/07/11 07:06:15;;;;;;;10.85;4.13;;;16.80;94.20;;;;;;5019549;28;20038;-88
2021/07/11 07:08:41;;;;;;;6.10;2.50;;;16.80;94.20;;;;;;5016054;28;20427;-88
2021/07/11 07:11:07;;;;;;;14.15;4.57;;;16.70;94.40;;;;;;5014876;28;20036;-89
2021/07/11 07:13:32;;;;;;;5.30;2.70;;;17.10;94.10;;;;;;5016278;28;20068;-89
2021/07/11 07:15:58;;;;;;;5.53;2.28;;;17.60;92.90;;;;;;5015823;28;20021;-88
2021/07/11 07:18:24;;;;;;;7.45;2.75;;;18.00;93.20;;;;;;5017077;28;20014;-89
2021/07/11 07:20:49;;;;;;;6.30;2.80;;;18.50;92.10;;;;;;5019449;28;20026;-89
2021/07/11 07:23:15;;;;;;;5.80;2.60;;;18.60;91.10;;;;;;5031133;28;20029;-90
2021/07/11 07:25:41;;;;;;;4.30;2.17;;;18.50;90.10;;;;;;5013598;28;20383;-89
2021/07/11 07:28:10;;;;;;;6.00;2.40;;;18.30;90.50;;;;;;5016994;28;20025;-89
2021/07/11 07:30:36;;;;;;;6.05;2.45;;;18.40;91.50;;;;;;5016069;28;20075;-89
2021/07/11 07:33:02;;;;;;;5.22;2.25;;;18.40;91.10;;;;;;5019086;28;20022;-89
2021/07/11 07:35:28;;;;;;;5.30;2.30;;;19.10;88.50;;;;;;5015740;28;20084;-89
2021/07/11 07:37:54;;;;;;;4.57;2.10;;;19.00;89.70;;;;;;5023656;28;20427;-88
2021/07/11 07:40:20;;;;;;;4.45;1.92;;;19.00;88.90;;;;;;4998211;28;20030;-89
2021/07/11 07:42:48;;;;;;;5.70;2.58;;;18.70;89.20;;;;;;4997874;28;20431;-90
2021/07/11 07:45:15;;;;;;;5.10;2.63;;;18.20;90.50;;;;;;5019247;28;20319;-89
2021/07/11 07:47:41;;;;;;;5.28;2.72;;;17.40;93.10;;;;;;5015671;28;20029;-89
2021/07/11 07:50:13;;;;;;;4.93;2.72;;;17.00;93.90;;;;;;5016266;28;20059;-89
2021/07/11 07:52:39;;;;;;;5.57;2.90;;;16.90;94.80;;;;;;5018456;28;20064;-88
2021/07/11 07:55:07;;;;;;;4.80;2.63;;;16.70;94.60;;;;;;5016375;28;20034;-89
2021/07/11 07:57:32;;;;;;;5.07;2.70;;;16.60;94.90;;;;;;5001216;28;20018;-88
2021/07/11 07:59:58;;;;;;;5.32;3.05;;;16.70;95.20;;;;;;5024087;28;20036;-89
2021/07/11 08:02:24;;;;;;;5.55;3.00;;;16.80;95.20;;;;;;5018451;28;20026;-88
2021/07/11 08:04:50;;;;;;;4.65;2.63;;;17.00;94.70;;;;;;5015785;28;20041;-88
2021/07/11 08:07:29;;;;;;;4.63;2.25;;;17.30;94.40;;;;;;5015330;28;20044;-88
2021/07/11 08:09:55;;;;;;;4.97;2.35;;;17.60;93.60;;;;;;5017613;28;20026;-90
2021/07/11 08:12:21;;;;;;;5.28;2.53;;;18.00;92.90;;;;;;5014118;28;20149;-88
2021/07/11 08:14:47;;;;;;;4.43;2.60;;;18.40;92.70;;;;;;5013311;28;20034;-89
2021/07/11 08:17:12;;;;;;;5.45;2.67;;;18.80;91.20;;;;;;5015344;28;20033;-90
2021/07/11 08:19:39;;;;;;;3.70;2.10;;;18.90;91.30;;;;;;4992795;28;20427;-90
2021/07/11 08:22:19;;;;;;;4.38;2.60;;;18.90;91.30;;;;;;4996108;28;20034;-89
2021/07/11 08:24:44;;;;;;;5.32;2.70;;;18.90;90.40;;;;;;4997891;28;20041;-89
2021/07/11 08:27:10;;;;;;;5.88;2.72;;;18.60;91.00;;;;;;5014039;28;20029;-89
2021/07/11 08:29:36;;;;;;;5.97;2.80;;;18.50;91.80;;;;;;4991784;28;20033;-88
2021/07/11 08:32:05;;;;;;;6.47;2.72;;;18.50;90.70;;;;;;5011155;28;20029;-89
2021/07/11 08:34:30;;;;;;;6.25;3.22;;;18.50;90.60;;;;;;5011208;28;20658;-90
2021/07/11 08:37:07;;;;;;;7.18;2.63;;;18.80;90.10;;;;;;5014976;28;20026;-88
2021/07/11 08:39:35;;;;;;;9.27;4.10;;;19.90;88.30;;;;;;5011181;28;20108;-90
2021/07/11 08:42:01;;;;;;;7.22;3.45;;;20.40;85.10;;;;;;5000814;28;20067;-89
2021/07/11 08:44:26;;;;;;;5.35;2.40;;;20.60;84.00;;;;;;5014751;28;20366;-89
2021/07/11 08:46:53;;;;;;;4.78;2.85;;;20.60;84.10;;;;;;5014032;28;20022;-89
2021/07/11 08:49:21;;;;;;;4.35;2.33;;;20.30;83.60;;;;;;4998031;28;20018;-88
2021/07/11 08:51:48;;;;;;;9.00;2.17;;;20.30;84.50;;;;;;5012786;28;20109;-91
2021/07/11 08:54:15;;;;;;;4.45;2.35;;;20.50;84.00;;;;;;4996325;28;20606;-91
2021/07/11 08:56:42;;;;;;;4.88;2.33;;;20.40;84.80;;;;;;4998564;28;20117;-90
2021/07/11 08:59:08;;;;;;;4.68;2.42;;;20.10;85.90;;;;;;5013956;28;20450;-90
2021/07/11 09:01:33;;;;;;;6.03;2.70;;;19.60;87.40;;;;;;4991776;28;20030;-89
2021/07/11 09:04:07;;;;;;;4.63;2.15;;;18.90;88.90;;;;;;4999671;28;20105;-87
2021/07/11 09:06:47;;;;;;;4.25;2.17;;;18.60;89.80;;;;;;5007473;28;20053;-87
2021/07/11 09:09:26;;;;;;;4.18;2.28;;;18.60;91.30;;;;;;4988626;28;20099;-89
2021/07/11 09:11:59;;;;;;;5.53;2.35;;;18.50;91.00;;;;;;5004768;28;20433;-89
2021/07/11 09:14:27;;;;;;;5.70;2.92;;;18.40;91.70;;;;;;5006854;28;20025;-88
2021/07/11 09:16:54;;;;;;;6.22;2.50;;;18.10;92.60;;;;;;5003817;28;20037;-87
2021/07/11 09:20:26;;;;;;;4.75;2.30;;;18.00;92.50;;;;;;5002370;28;20056;-89
2021/07/11 09:22:36;;;;;;;6.03;2.40;;;17.90;92.00;;;;;;5004024;28;20038;-90
2021/07/11 09:25:22;;;;;;;;;;;;;;;;;;;;;
2021/07/11 09:27:50;;;;;;;6.20;2.95;;;17.70;92.80;;;;;;5011430;28;20029;-90
2021/07/11 09:30:17;;;;;;;6.35;2.47;;;17.50;93.10;;;;;;4999534;28;20329;-90
2021/07/11 09:32:44;;;;;;;6.82;3.97;;;17.30;94.30;;;;;;4995863;28;20076;-89
2021/07/11 09:35:12;;;;;;;9.18;4.80;;;17.10;94.70;;;;;;5014149;28;20088;-89
2021/07/11 09:37:42;;;;;;;6.22;3.55;;;16.80;95.50;;;;;;5010174;28;20434;-90
2021/07/11 09:40:09;;;;;;;5.57;2.95;;;16.50;96.30;;;;;;4998339;28;20033;-89
2021/07/11 09:42:37;;;;;;;6.68;3.70;;;16.50;96.70;;;;;;4996469;28;20029;-88
2021/07/11 09:45:23;;;;;;;6.00;3.00;;;16.70;96.40;;;;;;4993494;28;20022;-88
2021/07/11 09:47:56;;;;;;;5.35;3.17;;;17.00;96.30;;;;;;5015186;28;20037;-89
2021/07/11 09:50:24;;;;;;;5.28;2.78;;;17.30;95.70;;;;;;5017998;28;20387;-90
2021/07/11 09:52:55;;;;;;;6.45;2.83;;;17.70;95.30;;;;;;5019258;28;20022;-90
2021/07/11 09:55:24;;;;;;;4.68;2.58;;;18.10;94.90;;;;;;4997876;28;20022;-88
2021/07/11 09:57:59;;;;;;;5.63;2.78;;;18.50;93.50;;;;;;5014013;28;20049;-90
2021/07/11 10:00:40;;;;;;;5.53;2.75;;;18.70;94.00;;;;;;5017238;28;20029;-90
2021/07/11 10:03:06;;;;;;;4.32;2.08;;;19.50;92.50;;;;;;5017778;28;20029;-90
2021/07/11 10:05:33;;;;;;;5.57;2.00;;;20.80;89.10;;;;;;5013835;28;20033;-91
2021/07/11 10:08:01;;;;;;;5.03;2.00;;;23.00;85.60;;;;;;5006763;28;20037;-89
2021/07/11 10:10:29;;;;;;;4.05;2.20;;;25.00;79.40;;;;;;5009916;28;20113;-90
2021/07/11 10:12:55;;;;;;;4.80;1.95;;;26.10;72.90;;;;;;5001048;28;20025;-90
2021/07/11 10:15:26;;;;;;;4.57;1.85;;;25.80;72.00;;;;;;5004111;28;20347;-89
2021/07/11 10:17:58;;;;;;;4.78;1.92;;;24.80;75.30;;;;;;5001642;28;20315;-91
2021/07/11 10:20:54;;;;;;;3.83;1.70;;;24.90;73.70;;;;;;5009943;28;20117;-90
2021/07/11 10:23:24;;;;;;;3.63;1.75;;;26.00;71.10;;;;;;5013663;28;20038;-90
2021/07/11 10:25:59;;;;;;;3.35;1.50;;;25.90;70.40;;;;;;5015296;28;20423;-91
2021/07/11 10:28:52;;;;;;;3.40;1.70;;;25.40;72.50;;;;;;4993146;28;20026;-90
2021/07/11 10:31:28;;;;;;;4.68;1.67;;;24.90;71.50;;;;;;4991564;28;20042;-90
2021/07/11 10:33:57;;;;;;;3.80;2.15;;;23.30;75.40;;;;;;4998490;28;20034;-92
2021/07/11 10:36:42;;;;;;;3.80;1.90;;;21.20;81.30;;;;;;4992226;28;20033;-91
2021/07/11 10:39:10;;;;;;;3.17;1.60;;;20.10;84.80;;;;;;5012371;28;20430;-89
2021/07/11 10:41:50;;;;;;;5.25;2.20;;;19.20;88.30;;;;;;5015945;28;20030;-89
2021/07/11 10:44:25;;;;;;;3.80;2.10;;;18.50;90.30;;;;;;4996908;28;20026;-91
2021/07/11 10:46:59;;;;;;;3.92;1.80;;;18.10;92.50;;;;;;5012204;28;20030;-89
2021/07/11 10:49:30;;;;;;;5.45;2.05;;;17.80;92.70;;;;;;4997876;28;20068;-90
2021/07/11 10:51:58;;;;;;;3.63;1.98;;;17.60;93.20;;;;;;4996648;28;20022;-89
2021/07/11 10:54:36;;;;;;;3.90;2.08;;;17.50;93.30;;;;;;4998856;28;20087;-88
2021/07/11 10:57:02;;;;;;;4.20;2.05;;;17.50;93.90;;;;;;4996212;28;20104;-91
2021/07/11 10:59:35;;;;;;;4.40;2.17;;;17.60;94.00;;;;;;4999561;28;20116;-91
2021/07/11 11:02:17;;;;;;;4.30;1.90;;;17.90;93.20;;;;;;4994983;28;20029;-90
2021/07/11 11:04:44;;;;;;;3.70;1.80;;;18.30;92.60;;;;;;4995731;28;20029;-90
2021/07/11 11:07:19;;;;;;;3.75;1.60;;;18.70;89.20;;;;;;5017363;28;20020;-91
2021/07/11 11:09:51;;;;;;;3.55;1.67;;;19.80;89.00;;;;;;4998782;28;20071;-91
2021/07/11 11:12:32;;;;;;;2.55;1.25;;;21.60;84.20;;;;;;5016275;28;20014;-92
2021/07/11 11:22:14;;;;;;;2.75;1.40;;;25.50;66.70;;;;;;4913946;29;20765;-92
2021/07/11 11:28:56;;;;;;;;;;;;;;;;;;;;;
2021/07/11 11:32:17;;;;;;;2.90;1.45;;;24.10;71.40;;;;;;4911639;29;20454;-91
2021/07/11 11:35:32;;;;;;;5.20;1.73;;;23.90;72.30;;;;;;4858806;29;20052;-90
2021/07/11 11:38:49;;;;;;;3.78;1.52;;;22.80;75.20;;;;;;4896353;29;20039;-90
2021/07/11 11:42:07;;;;;;;;;;;;;;;;;;;;;
2021/07/11 11:45:01;;;;;;;4.65;2.75;;;22.20;77.00;;;;;;4952695;28;20036;-90
2021/07/11 11:48:16;;;;;;;3.85;1.85;;;21.80;78.60;;;;;;4935149;28;20072;-91
2021/07/11 11:51:24;;;;;;;4.50;2.10;;;21.40;80.30;;;;;;4909552;29;20036;-91
2021/07/11 12:04:55;;;;;;;2.83;1.40;;;24.10;74.00;;;;;;4899680;29;20442;-90
2021/07/11 13:17:16;;;;;;;3.15;1.42;;;23.60;73.10;;;;;;6110075;23;20292;-90
2021/07/11 13:20:20;;;;;;;;;;;;;;;;;;;;;
2021/07/11 13:23:10;;;;;;;;;;;;;;;;;;;;;
2021/07/11 13:32:59;;;;;;;;;;;;;;;;;;;;;
2021/07/11 13:36:30;;;;;;;;;;;;;;;;;;;;;
2021/07/11 13:39:19;;;;;;;2.58;1.13;;;24.30;72.40;;;;;;6128787;23;20214;-89
2021/07/11 13:42:18;;;;;;;2.97;1.30;;;25.10;70.90;;;;;;6178084;23;20084;-91
2021/07/11 13:44:49;;;;;;;3.50;1.30;;;25.10;70.10;;;;;;6215261;23;20005;-90
2021/07/11 13:47:37;;;;;;;2.42;1.15;;;25.10;70.90;;;;;;6191958;23;20004;-90
2021/07/11 13:50:25;;;;;;;;;;;;;;;;;;;;;
2021/07/11 13:52:54;;;;;;;2.80;1.02;;;25.70;69.20;;;;;;6215861;23;20115;-87
2021/07/11 13:55:20;;;;;;;2.10;1.00;;;25.70;67.00;;;;;;6189742;23;20028;-87
2021/07/11 13:57:47;;;;;;;2.38;1.30;;;25.40;67.70;;;;;;6189380;23;20020;-88
2021/07/11 14:00:19;;;;;;;2.55;1.20;;;24.70;68.90;;;;;;6187653;23;20402;-89
2021/07/11 14:02:46;;;;;;;2.63;1.17;;;24.50;68.80;;;;;;6218041;23;20363;-89
2021/07/11 14:05:12;;;;;;;3.75;1.58;;;24.70;69.30;;;;;;6191677;23;20294;-90
2021/07/11 14:07:41;;;;;;;3.08;1.30;;;25.50;68.60;;;;;;6212118;23;20005;-90
2021/07/11 14:10:07;;;;;;;2.10;1.02;;;26.30;64.90;;;;;;6213474;23;20050;-90
2021/07/11 14:12:36;;;;;;;2.90;1.38;;;26.40;64.00;;;;;;6213498;23;20077;-90
2021/07/11 14:15:02;;;;;;;3.83;1.27;;;26.30;65.50;;;;;;6188208;23;20037;-88
2021/07/11 14:17:28;;;;;;;2.53;1.10;;;25.30;66.30;;;;;;6216873;23;19996;-89
2021/07/11 14:19:54;;;;;;;4.35;1.30;;;24.40;69.00;;;;;;6190602;23;20000;-88
2021/07/11 14:22:20;;;;;;;2.65;1.10;;;24.10;70.30;;;;;;6190744;23;20007;-89
2021/07/11 14:24:49;;;;;;;2.10;1.10;;;25.00;69.40;;;;;;6214973;23;20135;-88
2021/07/11 14:27:22;;;;;;;1.30;0.80;;;26.30;66.00;;;;;;6216950;23;20001;-88
2021/07/11 14:29:53;;;;;;;2.05;1.00;;;27.20;63.30;;;;;;6190690;23;20008;-90
2021/07/11 14:32:19;;;;;;;2.28;0.90;;;28.50;65.90;;;;;;6216761;23;20389;-89
2021/07/11 14:34:53;;;;;;;1.45;0.80;;;29.40;60.30;;;;;;6216102;23;20081;-88
2021/07/11 14:37:19;;;;;;;1.92;0.90;;;29.20;61.50;;;;;;6189129;23;20000;-88
2021/07/11 14:39:45;;;;;;;1.88;0.80;;;29.20;61.90;;;;;;6189935;23;20007;-89
2021/07/11 14:42:12;;;;;;;1.65;0.80;;;29.80;59.90;;;;;;6217566;23;20274;-90
2021/07/11 14:44:38;;;;;;;2.15;0.80;;;29.70;58.10;;;;;;6216434;23;20035;-90
2021/07/11 14:47:19;;;;;;;1.83;1.00;;;28.00;59.50;;;;;;6188980;23;20080;-91
2021/07/11 14:50:21;;;;;;;;;;;;;;;;;;;;;
2021/07/11 14:53:15;;;;;;;1.85;0.85;;;27.70;65.30;;;;;;6123782;23;20123;-91
2021/07/11 14:59:28;;;;;;;1.98;0.90;;;29.90;57.10;;;;;;6124535;23;20010;-90